Time;durP1;ratioP1;P1;durP2;ratioP2;P2;SDS_P1;SDS_P2;PMS_P1;PMS_P2;Temp;Humidity;BMP_temperature;BMP_pressure;BME280_temperature;BME280_humidity;BME280_pressure;Samples;Min_cycle;Max_cycle;Signal;HPM_P1;HPM_P2
2023/08/17 00:00:47;;;;;;;4.33;2.60;;;;;24.10;100808.00;;;;2093886;28;20220;-64
2023/08/17 00:01:48;;;;;;;3.10;2.67;;;;;24.20;100821.00;;;;2090578;28;20293;-61
2023/08/17 00:02:48;;;;;;;5.50;3.27;;;;;24.20;100819.00;;;;2096660;28;20225;-61
2023/08/17 00:03:49;;;;;;;2.77;2.47;;;;;24.20;100821.00;;;;2089983;28;20228;-60
2023/08/17 00:04:49;;;;;;;2.37;2.10;;;;;24.10;100820.00;;;;2077571;28;20695;-61
2023/08/17 00:05:49;;;;;;;2.77;2.47;;;;;24.20;100822.00;;;;2090454;28;20262;-60
2023/08/17 00:06:50;;;;;;;4.10;2.90;;;;;24.20;100816.00;;;;2091875;28;20266;-61
2023/08/17 00:07:50;;;;;;;3.13;2.40;;;;;24.10;100822.00;;;;2099585;28;20215;-61
2023/08/17 00:08:50;;;;;;;2.83;2.53;;;;;24.10;100832.00;;;;2085395;28;20220;-61
2023/08/17 00:09:51;;;;;;;3.73;2.53;;;;;24.10;100823.00;;;;2097473;28;20204;-60
2023/08/17 00:10:51;;;;;;;3.40;2.37;;;;;24.20;100821.00;;;;2096695;28;20220;-60
2023/08/17 00:11:51;;;;;;;5.03;2.23;;;;;24.20;100838.00;;;;2094380;28;20231;-60
2023/08/17 00:12:52;;;;;;;3.33;2.13;;;;;24.20;100818.00;;;;2093518;28;20717;-60
2023/08/17 00:13:52;;;;;;;3.53;2.77;;;;;24.20;100821.00;;;;2088779;28;20685;-60
2023/08/17 00:14:52;;;;;;;3.23;2.67;;;;;24.20;100828.00;;;;2098472;28;20835;-60
2023/08/17 00:15:53;;;;;;;3.33;2.70;;;;;24.20;100809.00;;;;2090575;28;20213;-60
2023/08/17 00:16:53;;;;;;;3.87;2.53;;;;;24.20;100803.00;;;;2092319;28;20262;-60
2023/08/17 00:17:53;;;;;;;3.70;2.77;;;;;24.20;100805.00;;;;2087874;28;20248;-60
2023/08/17 00:18:54;;;;;;;4.77;2.63;;;;;24.20;100803.00;;;;2081157;28;20216;-60
2023/08/17 00:19:54;;;;;;;3.90;2.50;;;;;24.20;100802.00;;;;2100832;28;20296;-60
2023/08/17 00:20:54;;;;;;;3.13;2.30;;;;;24.20;100797.00;;;;2091240;28;20273;-61
2023/08/17 00:21:55;;;;;;;3.10;2.30;;;;;24.20;100796.00;;;;2090930;28;20322;-60
2023/08/17 00:22:55;;;;;;;3.83;2.40;;;;;24.20;100797.00;;;;2087159;28;20354;-59
2023/08/17 00:23:56;;;;;;;2.83;2.40;;;;;24.10;100794.00;;;;2087710;28;20239;-60
2023/08/17 00:24:56;;;;;;;3.07;2.77;;;;;24.20;100794.00;;;;2102784;28;20389;-60
2023/08/17 00:25:57;;;;;;;2.87;2.53;;;;;24.20;100812.00;;;;2101473;28;20577;-60
2023/08/17 00:26:57;;;;;;;4.00;2.30;;;;;24.20;100798.00;;;;2100864;28;20211;-60
2023/08/17 00:27:57;;;;;;;3.43;2.53;;;;;24.20;100801.00;;;;2096477;28;20315;-60
2023/08/17 00:28:58;;;;;;;3.60;2.70;;;;;24.20;100797.00;;;;2093711;28;20215;-60
2023/08/17 00:29:58;;;;;;;3.50;2.60;;;;;24.20;100800.00;;;;2105173;28;20219;-60
2023/08/17 00:30:59;;;;;;;3.17;2.80;;;;;24.20;100795.00;;;;2101972;28;20239;-60
2023/08/17 00:32:01;;;;;;;2.40;2.15;;;;;24.20;100796.00;;;;2101531;28;20224;-61
2023/08/17 00:33:02;;;;;;;6.13;2.40;;;;;24.20;100797.00;;;;2093080;28;20223;-60
2023/08/17 00:34:02;;;;;;;2.55;2.35;;;;;24.20;100793.00;;;;2098650;28;20218;-60
2023/08/17 00:35:03;;;;;;;4.00;2.50;;;;;24.20;100797.00;;;;2105185;28;20225;-60
2023/08/17 00:36:04;;;;;;;3.13;2.60;;;;;24.20;100800.00;;;;2092040;28;20212;-60
2023/08/17 00:37:04;;;;;;;4.20;2.33;;;;;24.20;100797.00;;;;2099814;28;20247;-60
2023/08/17 00:38:04;;;;;;;4.97;2.90;;;;;24.20;100805.00;;;;2099977;28;20302;-62
2023/08/17 00:39:05;;;;;;;4.27;2.70;;;;;24.20;100801.00;;;;2096401;28;20227;-61
2023/08/17 00:40:05;;;;;;;3.73;2.23;;;;;24.10;100800.00;;;;2101417;28;20463;-60
2023/08/17 00:41:06;;;;;;;2.20;2.00;;;;;24.10;100797.00;;;;2103036;28;20284;-60
2023/08/17 00:42:07;;;;;;;4.50;2.30;;;;;24.20;100805.00;;;;2095996;28;20467;-60
2023/08/17 00:43:08;;;;;;;2.92;2.40;;;;;24.10;100807.00;;;;2084985;28;20250;-60
2023/08/17 00:44:08;;;;;;;2.40;2.20;;;;;24.10;100806.00;;;;2090057;28;20711;-59
2023/08/17 00:45:09;;;;;;;3.03;2.20;;;;;24.20;100807.00;;;;2093963;28;20679;-59
2023/08/17 00:46:10;;;;;;;2.93;2.37;;;;;24.10;100811.00;;;;2088587;28;20216;-60
2023/08/17 00:47:10;;;;;;;2.83;2.42;;;;;24.20;100811.00;;;;2093369;28;20216;-60
2023/08/17 00:48:11;;;;;;;2.50;2.13;;;;;24.10;100820.00;;;;2091980;28;20212;-60
2023/08/17 00:49:11;;;;;;;2.70;2.20;;;;;24.20;100812.00;;;;2090412;28;20300;-60
2023/08/17 00:50:18;;;;;;;2.70;2.33;;;;;24.20;100824.00;;;;2094994;28;20227;-60
2023/08/17 00:51:20;;;;;;;2.33;2.13;;;;;24.20;100802.00;;;;2083975;28;20303;-59
2023/08/17 00:52:20;;;;;;;2.78;2.10;;;;;24.20;100803.00;;;;2093060;28;20303;-59
2023/08/17 00:53:21;;;;;;;2.30;2.10;;;;;24.20;100801.00;;;;2071928;28;20275;-59
2023/08/17 00:54:24;;;;;;;2.53;2.00;;;;;24.20;100805.00;;;;2080485;28;20218;-59
2023/08/17 00:55:24;;;;;;;2.28;1.67;;;;;24.20;100806.00;;;;2088097;28;20283;-60
2023/08/17 00:56:25;;;;;;;2.53;2.33;;;;;24.20;100819.00;;;;2070892;28;20217;-59
2023/08/17 00:57:26;;;;;;;2.25;2.05;;;;;24.20;100787.00;;;;2076804;28;20225;-60
2023/08/17 00:58:26;;;;;;;3.30;2.53;;;;;24.20;100811.00;;;;2076146;28;20233;-60
2023/08/17 00:59:27;;;;;;;2.53;2.03;;;;;24.20;100803.00;;;;2084626;28;20544;-61
2023/08/17 01:00:27;;;;;;;2.40;2.20;;;;;24.20;100798.00;;;;2079794;28;20209;-61
2023/08/17 01:01:28;;;;;;;2.10;1.87;;;;;24.20;100795.00;;;;2082316;28;21214;-61
2023/08/17 01:02:28;;;;;;;6.07;2.13;;;;;24.20;100796.00;;;;2099162;28;20225;-61
2023/08/17 01:03:31;;;;;;;2.17;1.97;;;;;24.20;100798.00;;;;2084177;28;20367;-60
2023/08/17 01:04:31;;;;;;;2.80;2.00;;;;;24.10;100806.00;;;;2086306;28;20224;-60
2023/08/17 01:05:32;;;;;;;2.23;2.00;;;;;24.20;100800.00;;;;2090916;28;20266;-60
2023/08/17 01:06:33;;;;;;;2.78;1.90;;;;;24.20;100803.00;;;;2078616;28;20590;-60
2023/08/17 01:07:33;;;;;;;2.70;2.00;;;;;24.20;100809.00;;;;2092333;28;20248;-60
2023/08/17 01:08:33;;;;;;;3.47;1.87;;;;;24.20;100795.00;;;;2095932;27;20226;-60
2023/08/17 01:09:34;;;;;;;2.13;1.93;;;;;24.20;100816.00;;;;2096178;28;20211;-60
2023/08/17 01:10:59;;;;;;;2.93;1.97;;;;;24.20;100817.00;;;;2093032;28;20306;-60
2023/08/17 01:12:31;;;;;;;2.50;2.00;;;;;24.20;100848.00;;;;2109641;28;20298;-61
2023/08/17 01:14:16;;;;;;;2.25;1.80;;;;;24.20;100819.00;;;;2088496;28;20293;-60
2023/08/17 01:15:20;;;;;;;2.72;2.22;;;;;24.20;100816.00;;;;2090481;28;20218;-60
2023/08/17 01:16:24;;;;;;;2.05;1.85;;;;;24.20;100818.00;;;;2093435;28;20585;-60
2023/08/17 01:17:28;;;;;;;2.85;2.00;;;;;24.20;100822.00;;;;2084830;28;20224;-60
2023/08/17 01:18:46;;;;;;;2.78;1.98;;;;;24.20;100821.00;;;;2086070;28;20681;-60
2023/08/17 01:19:46;;;;;;;2.42;1.90;;;;;24.20;100810.00;;;;2089882;28;20606;-59
2023/08/17 01:20:47;;;;;;;3.10;1.87;;;;;24.20;100799.00;;;;2071031;28;20236;-60
2023/08/17 01:21:49;;;;;;;3.60;2.33;;;;;24.20;100812.00;;;;2084480;28;20227;-60
2023/08/17 01:22:50;;;;;;;2.53;1.90;;;;;24.20;100802.00;;;;2075242;28;20213;-60
2023/08/17 01:23:51;;;;;;;4.83;1.97;;;;;24.20;100789.00;;;;2079651;28;20212;-60
2023/08/17 01:24:57;;;;;;;2.27;1.90;;;;;23.60;100795.00;;;;2088873;28;20231;-60
2023/08/17 01:25:57;;;;;;;2.70;2.40;;;;;24.20;100794.00;;;;2090039;28;20224;-61
2023/08/17 01:26:57;;;;;;;2.20;1.90;;;;;24.10;100790.00;;;;2090569;28;20258;-60
2023/08/17 01:27:58;;;;;;;2.20;2.00;;;;;24.10;100790.00;;;;2083847;28;20205;-60
2023/08/17 01:28:59;;;;;;;2.35;1.95;;;;;24.10;100786.00;;;;2069702;28;20742;-60
2023/08/17 01:29:59;;;;;;;2.37;2.07;;;;;24.10;100793.00;;;;2076498;28;20221;-60
2023/08/17 01:31:17;;;;;;;2.87;1.90;;;;;24.10;100792.00;;;;2084023;28;20247;-60
2023/08/17 01:32:40;;;;;;;1.98;1.88;;;;;24.20;100802.00;;;;2090128;28;20305;-60
2023/08/17 01:33:44;;;;;;;2.83;2.15;;;;;24.20;100800.00;;;;2089634;28;20223;-60
2023/08/17 01:34:47;;;;;;;2.78;1.80;;;;;24.10;100800.00;;;;2092297;28;20273;-59
2023/08/17 01:36:06;;;;;;;2.10;1.65;;;;;24.10;100805.00;;;;2084691;28;20594;-59
2023/08/17 01:37:07;;;;;;;4.50;2.50;;;;;24.10;100798.00;;;;2090783;28;20211;-59
2023/08/17 01:38:10;;;;;;;2.90;2.40;;;;;24.10;100787.00;;;;2082643;28;20570;-60
2023/08/17 01:39:11;;;;;;;2.67;2.30;;;;;24.20;100784.00;;;;2070289;28;20467;-59
2023/08/17 01:40:12;;;;;;;2.10;1.90;;;;;24.20;100790.00;;;;2092228;28;20219;-58
2023/08/17 01:41:15;;;;;;;2.13;1.77;;;;;24.20;100791.00;;;;2099006;28;20208;-61
2023/08/17 01:42:15;;;;;;;2.75;2.00;;;;;24.20;100795.00;;;;2088887;28;20208;-60
2023/08/17 01:43:16;;;;;;;2.00;1.80;;;;;24.20;100778.00;;;;2083176;28;20582;-60
2023/08/17 01:44:16;;;;;;;2.85;2.13;;;;;24.20;100788.00;;;;2091444;28;20311;-60
2023/08/17 01:45:17;;;;;;;3.83;1.97;;;;;24.20;100772.00;;;;2098346;28;20216;-60
2023/08/17 01:46:17;;;;;;;4.83;2.10;;;;;23.90;100767.00;;;;2089811;28;20251;-60
2023/08/17 01:47:21;;;;;;;3.27;2.00;;;;;24.10;100767.00;;;;2076420;28;20216;-60
2023/08/17 01:48:22;;;;;;;3.45;1.75;;;;;24.10;100775.00;;;;2068336;28;20244;-60
2023/08/17 01:49:22;;;;;;;2.70;1.67;;;;;24.10;100771.00;;;;2085864;28;20287;-61
2023/08/17 01:50:22;;;;;;;1.83;1.73;;;;;24.20;100767.00;;;;2099874;28;20227;-60
2023/08/17 01:51:24;;;;;;;2.43;2.23;;;;;24.10;100765.00;;;;2091700;28;20226;-60
2023/08/17 01:52:24;;;;;;;3.05;1.95;;;;;24.20;100761.00;;;;2092902;28;20262;-60
2023/08/17 01:53:24;;;;;;;4.87;2.20;;;;;24.10;100678.00;;;;2077826;28;20285;-60
2023/08/17 01:54:25;;;;;;;3.03;2.20;;;;;24.20;100762.00;;;;2084296;28;20220;-60
2023/08/17 01:55:26;;;;;;;2.80;2.20;;;;;24.20;100763.00;;;;2089514;28;20216;-60
2023/08/17 01:56:27;;;;;;;2.60;1.92;;;;;24.20;100759.00;;;;2092051;28;20234;-60
2023/08/17 01:57:27;;;;;;;2.67;2.27;;;;;24.20;100746.00;;;;2091185;28;20216;-60
2023/08/17 01:58:27;;;;;;;2.27;2.07;;;;;24.20;100750.00;;;;2091292;28;20431;-60
2023/08/17 01:59:28;;;;;;;3.77;1.90;;;;;24.20;100744.00;;;;2100996;28;20219;-61
2023/08/17 02:00:28;;;;;;;2.23;1.70;;;;;24.20;100752.00;;;;2101205;28;20302;-61
2023/08/17 02:01:28;;;;;;;3.03;1.97;;;;;24.20;100744.00;;;;2095862;28;20216;-61
2023/08/17 02:02:29;;;;;;;1.87;1.67;;;;;24.20;100741.00;;;;2098048;28;20219;-60
2023/08/17 02:03:29;;;;;;;2.30;2.10;;;;;24.20;100742.00;;;;2091785;28;20223;-60
2023/08/17 02:04:29;;;;;;;4.60;2.13;;;;;24.20;100743.00;;;;2097272;28;20216;-64
2023/08/17 02:05:30;;;;;;;2.80;1.97;;;;;24.20;100744.00;;;;2100898;28;20226;-60
2023/08/17 02:06:30;;;;;;;2.33;1.80;;;;;24.20;100745.00;;;;2093953;28;20802;-63
2023/08/17 02:07:30;;;;;;;2.10;1.90;;;;;24.20;100748.00;;;;2087723;28;20282;-61
2023/08/17 02:08:33;;;;;;;2.20;2.00;;;;;24.20;100750.00;;;;2079290;28;20773;-60
2023/08/17 02:09:33;;;;;;;2.20;2.00;;;;;24.20;100752.00;;;;2086499;28;20208;-60
2023/08/17 02:10:34;;;;;;;2.63;2.10;;;;;24.20;100753.00;;;;2099669;28;20212;-60
2023/08/17 02:11:34;;;;;;;2.77;2.23;;;;;24.10;100756.00;;;;2091980;28;20299;-60
2023/08/17 02:12:34;;;;;;;2.73;2.03;;;;;24.10;100752.00;;;;2094825;28;20261;-60
2023/08/17 02:13:36;;;;;;;2.37;1.83;;;;;24.10;100753.00;;;;2078840;28;20224;-60
2023/08/17 02:14:36;;;;;;;3.08;1.85;;;;;24.10;100751.00;;;;2099555;28;20203;-60
2023/08/17 02:15:40;;;;;;;3.60;2.27;;;;;24.10;100750.00;;;;2098490;28;20567;-60
2023/08/17 02:16:40;;;;;;;2.15;1.95;;;;;24.10;100756.00;;;;2091355;28;20212;-60
2023/08/17 02:17:40;;;;;;;2.33;1.90;;;;;24.10;100752.00;;;;2093219;28;20203;-60
2023/08/17 02:18:40;;;;;;;3.67;2.30;;;;;24.10;100751.00;;;;2088200;28;20215;-60
2023/08/17 02:19:41;;;;;;;2.77;2.10;;;;;24.10;100754.00;;;;2108239;28;20238;-60
2023/08/17 02:20:41;;;;;;;2.90;1.87;;;;;24.10;100755.00;;;;2097020;28;20213;-60
2023/08/17 02:21:41;;;;;;;2.10;1.90;;;;;24.10;100752.00;;;;2093372;28;20219;-60
2023/08/17 02:22:42;;;;;;;2.27;2.07;;;;;24.10;100748.00;;;;2088422;28;20714;-60
2023/08/17 02:23:42;;;;;;;2.03;1.83;;;;;24.10;100758.00;;;;2082699;28;20752;-60
2023/08/17 02:24:42;;;;;;;2.17;1.83;;;;;24.20;100757.00;;;;2103259;27;20211;-59
2023/08/17 02:25:43;;;;;;;2.90;2.10;;;;;24.20;100755.00;;;;2100521;28;20216;-59
2023/08/17 02:26:43;;;;;;;2.33;2.03;;;;;24.20;100746.00;;;;2097807;28;20268;-60
2023/08/17 02:27:43;;;;;;;2.43;1.70;;;;;24.20;100744.00;;;;2097578;28;21068;-58
2023/08/17 02:28:44;;;;;;;2.60;2.10;;;;;24.10;100755.00;;;;2090697;28;20219;-58
2023/08/17 02:29:44;;;;;;;2.20;1.83;;;;;24.10;100750.00;;;;2108012;28;20234;-59
2023/08/17 02:30:46;;;;;;;2.37;2.10;;;;;24.10;100756.00;;;;2107850;27;20261;-59
2023/08/17 02:31:46;;;;;;;2.10;1.90;;;;;24.10;100747.00;;;;2101099;28;20204;-59
2023/08/17 02:32:47;;;;;;;2.27;1.90;;;;;24.10;100752.00;;;;2098120;28;20605;-60
2023/08/17 02:33:47;;;;;;;1.93;1.83;;;;;24.10;100751.00;;;;2094487;28;20309;-59
2023/08/17 02:34:47;;;;;;;2.70;2.00;;;;;24.10;100744.00;;;;2100703;28;20389;-59
2023/08/17 02:35:49;;;;;;;3.70;2.37;;;;;24.10;100749.00;;;;2098205;28;20219;-60
2023/08/17 02:36:49;;;;;;;2.58;1.92;;;;;24.10;100736.00;;;;2099843;28;20230;-60
2023/08/17 02:37:50;;;;;;;2.40;1.90;;;;;24.10;100745.00;;;;2095487;28;20219;-58
2023/08/17 02:38:50;;;;;;;2.10;1.83;;;;;24.10;100748.00;;;;2075949;28;20231;-59
2023/08/17 02:39:50;;;;;;;3.23;1.97;;;;;24.10;100748.00;;;;2077741;28;20220;-59
2023/08/17 02:40:51;;;;;;;2.83;2.20;;;;;24.10;100745.00;;;;2089392;28;20277;-59
2023/08/17 02:41:51;;;;;;;2.50;2.00;;;;;24.10;100737.00;;;;2093077;28;20307;-59
2023/08/17 02:42:51;;;;;;;2.53;2.20;;;;;24.10;100751.00;;;;2101666;28;20212;-59
2023/08/17 02:43:52;;;;;;;2.93;1.80;;;;;24.10;100744.00;;;;2090760;28;20324;-59
2023/08/17 02:44:52;;;;;;;2.47;2.20;;;;;24.10;100755.00;;;;2096991;28;20220;-59
2023/08/17 02:45:52;;;;;;;3.50;2.27;;;;;24.10;100739.00;;;;2088581;28;20224;-59
2023/08/17 02:46:53;;;;;;;2.93;2.10;;;;;24.10;100741.00;;;;2097735;28;20219;-60
2023/08/17 02:47:53;;;;;;;3.00;2.13;;;;;24.10;100740.00;;;;2098988;28;20230;-59
2023/08/17 02:48:53;;;;;;;3.70;1.90;;;;;24.10;100745.00;;;;2091198;28;20231;-60
2023/08/17 02:49:54;;;;;;;2.57;1.67;;;;;24.10;100736.00;;;;2096625;28;20223;-59
2023/08/17 02:50:54;;;;;;;2.10;1.80;;;;;24.10;100743.00;;;;2098228;28;20357;-59
2023/08/17 02:51:54;;;;;;;2.93;2.07;;;;;24.10;100737.00;;;;2094489;28;20318;-59
2023/08/17 02:52:55;;;;;;;3.63;2.40;;;;;24.10;100742.00;;;;2096461;28;20227;-59
2023/08/17 02:53:55;;;;;;;3.90;2.40;;;;;24.10;100745.00;;;;2081406;28;20251;-59
2023/08/17 02:54:55;;;;;;;2.50;2.23;;;;;24.10;100741.00;;;;2083232;28;20225;-59
2023/08/17 02:55:56;;;;;;;2.37;2.10;;;;;24.10;100739.00;;;;2093743;28;20227;-59
2023/08/17 02:56:56;;;;;;;2.23;2.03;;;;;24.10;100743.00;;;;2087325;28;20220;-60
2023/08/17 02:57:57;;;;;;;2.47;1.90;;;;;24.10;100747.00;;;;2097700;28;20896;-59
2023/08/17 02:58:57;;;;;;;2.57;2.37;;;;;24.10;100738.00;;;;2090485;28;20219;-60
2023/08/17 02:59:57;;;;;;;2.83;2.00;;;;;24.10;100738.00;;;;2106382;28;20218;-59
2023/08/17 03:00:58;;;;;;;2.30;2.10;;;;;24.10;100737.00;;;;2092111;28;20216;-59
2023/08/17 03:01:58;;;;;;;2.83;2.30;;;;;24.10;100738.00;;;;2100713;28;20294;-59
2023/08/17 03:02:58;;;;;;;3.03;2.23;;;;;24.10;100730.00;;;;2097157;28;20212;-59
2023/08/17 03:03:59;;;;;;;3.93;2.43;;;;;24.10;100728.00;;;;2097753;28;20252;-61
2023/08/17 03:04:59;;;;;;;2.50;1.70;;;;;24.10;100740.00;;;;2100664;28;20230;-60
2023/08/17 03:06:00;;;;;;;3.13;2.10;;;;;24.10;100741.00;;;;2091668;28;20311;-59
2023/08/17 03:07:00;;;;;;;3.50;2.20;;;;;24.10;100736.00;;;;2101672;28;20219;-60
2023/08/17 03:08:01;;;;;;;2.73;2.23;;;;;24.10;100745.00;;;;2096383;28;20220;-60
2023/08/17 03:09:01;;;;;;;3.67;2.53;;;;;24.10;100747.00;;;;2083551;28;20713;-60
2023/08/17 03:10:01;;;;;;;3.83;2.00;;;;;24.10;100751.00;;;;2093302;28;20227;-60
2023/08/17 03:11:02;;;;;;;1.97;1.87;;;;;24.10;100744.00;;;;2100030;28;20311;-60
2023/08/17 03:12:02;;;;;;;2.07;1.63;;;;;24.10;100744.00;;;;2103285;28;20272;-59
2023/08/17 03:13:03;;;;;;;2.27;1.80;;;;;24.10;100746.00;;;;2092955;28;20223;-60
2023/08/17 03:14:03;;;;;;;3.37;1.97;;;;;24.10;100747.00;;;;2097745;27;20214;-60
2023/08/17 03:15:05;;;;;;;3.27;1.73;;;;;24.10;100749.00;;;;2084240;28;20223;-60
2023/08/17 03:16:06;;;;;;;3.10;1.77;;;;;24.10;100746.00;;;;2084513;28;20240;-60
2023/08/17 03:17:06;;;;;;;2.10;1.90;;;;;24.10;100752.00;;;;2092367;28;20217;-60
2023/08/17 03:18:06;;;;;;;2.43;1.83;;;;;24.10;100754.00;;;;2075505;28;20223;-61
2023/08/17 03:19:10;;;;;;;2.20;1.90;;;;;24.10;100760.00;;;;2091341;28;20266;-61
2023/08/17 03:20:11;;;;;;;3.63;2.00;;;;;24.10;100763.00;;;;2086893;28;20215;-60
2023/08/17 03:21:11;;;;;;;2.27;2.07;;;;;24.10;100755.00;;;;2103115;28;20233;-60
2023/08/17 03:22:11;;;;;;;3.57;2.47;;;;;24.10;100756.00;;;;2100157;27;20684;-60
2023/08/17 03:23:12;;;;;;;3.27;1.77;;;;;24.20;100757.00;;;;2101481;27;20232;-60
2023/08/17 03:24:12;;;;;;;3.10;2.33;;;;;24.20;100756.00;;;;2112609;27;20222;-60
2023/08/17 03:25:12;;;;;;;2.53;2.20;;;;;24.10;100755.00;;;;2111288;27;20214;-60
2023/08/17 03:26:13;;;;;;;3.83;2.03;;;;;24.10;100755.00;;;;2102495;28;20216;-60
2023/08/17 03:27:13;;;;;;;5.20;2.37;;;;;24.10;100749.00;;;;2101214;28;20249;-60
2023/08/17 03:28:13;;;;;;;2.53;2.00;;;;;24.10;100761.00;;;;2092442;28;21058;-60
2023/08/17 03:29:14;;;;;;;3.30;2.00;;;;;23.90;100793.00;;;;2101664;28;20681;-59
2023/08/17 03:30:14;;;;;;;4.37;2.10;;;;;24.10;100749.00;;;;2093950;28;21158;-60
2023/08/17 03:31:14;;;;;;;3.50;1.80;;;;;24.10;100749.00;;;;2098775;28;20779;-60
2023/08/17 03:32:15;;;;;;;3.20;1.93;;;;;24.10;100752.00;;;;2084618;28;20264;-60
2023/08/17 03:33:15;;;;;;;2.57;2.07;;;;;24.10;100747.00;;;;2074245;28;20220;-60
2023/08/17 03:34:15;;;;;;;2.27;1.80;;;;;24.10;100755.00;;;;2088507;28;20217;-60
2023/08/17 03:35:15;;;;;;;4.03;2.10;;;;;24.10;100753.00;;;;2089008;28;20239;-60
2023/08/17 03:36:16;;;;;;;2.27;2.07;;;;;24.10;100759.00;;;;2092774;28;20215;-60
2023/08/17 03:37:16;;;;;;;2.90;1.93;;;;;24.10;100752.00;;;;2090391;28;20205;-60
2023/08/17 03:38:16;;;;;;;3.43;2.20;;;;;24.10;100758.00;;;;2085701;28;20208;-60
2023/08/17 03:39:17;;;;;;;2.80;2.13;;;;;24.10;100750.00;;;;2094190;28;20204;-61
2023/08/17 03:40:17;;;;;;;2.23;1.80;;;;;24.10;100749.00;;;;2094291;28;20332;-60
2023/08/17 03:41:18;;;;;;;2.93;2.00;;;;;24.10;100755.00;;;;2092799;28;20208;-60
2023/08/17 03:42:18;;;;;;;2.70;1.87;;;;;24.10;100756.00;;;;2094504;28;20216;-60
2023/08/17 03:43:19;;;;;;;2.37;2.17;;;;;24.10;100759.00;;;;2089494;28;20566;-60
2023/08/17 03:44:19;;;;;;;2.23;2.00;;;;;24.10;100759.00;;;;2094354;28;20235;-60
2023/08/17 03:45:19;;;;;;;3.73;2.27;;;;;24.10;100751.00;;;;2095687;28;20213;-60
2023/08/17 03:46:20;;;;;;;2.10;1.90;;;;;24.10;100746.00;;;;2089001;28;20574;-60
2023/08/17 03:47:20;;;;;;;1.70;1.60;;;;;24.10;100746.00;;;;2094304;28;20204;-60
2023/08/17 03:48:22;;;;;;;3.13;2.17;;;;;24.10;100748.00;;;;2089890;27;20778;-60
2023/08/17 03:49:22;;;;;;;3.08;2.00;;;;;24.10;100756.00;;;;2111746;27;20211;-60
2023/08/17 03:50:26;;;;;;;2.43;1.77;;;;;24.10;100744.00;;;;2106621;27;20207;-60
2023/08/17 03:51:26;;;;;;;2.53;2.30;;;;;24.10;100745.00;;;;2087065;28;20781;-60
2023/08/17 03:52:27;;;;;;;2.83;2.03;;;;;24.10;100740.00;;;;2095373;28;20212;-59
2023/08/17 03:53:27;;;;;;;3.77;2.00;;;;;24.10;100746.00;;;;2082592;28;20250;-60
2023/08/17 03:54:27;;;;;;;3.00;2.40;;;;;24.10;100744.00;;;;2093641;28;20224;-60
2023/08/17 03:55:28;;;;;;;3.13;1.97;;;;;24.10;100745.00;;;;2091836;28;20238;-60
2023/08/17 03:56:28;;;;;;;4.50;2.00;;;;;24.10;100749.00;;;;2093644;28;20208;-60
2023/08/17 03:57:28;;;;;;;2.20;2.00;;;;;24.10;100746.00;;;;2091864;28;20282;-60
2023/08/17 03:58:33;;;;;;;3.30;1.90;;;;;24.10;100744.00;;;;2082318;28;20232;-60
2023/08/17 03:59:33;;;;;;;2.38;1.90;;;;;24.10;100747.00;;;;2094145;28;21003;-60
2023/08/17 04:00:33;;;;;;;3.03;2.23;;;;;24.10;100751.00;;;;2088607;28;20220;-60
2023/08/17 04:01:34;;;;;;;2.77;2.00;;;;;24.10;100746.00;;;;2098340;28;20224;-59
2023/08/17 04:02:34;;;;;;;3.13;2.03;;;;;24.10;100746.00;;;;2105625;28;20235;-59
2023/08/17 04:03:34;;;;;;;2.70;1.70;;;;;24.10;100750.00;;;;2092412;28;20230;-61
2023/08/17 04:04:35;;;;;;;3.30;2.20;;;;;23.80;100753.00;;;;2098936;28;20212;-62
2023/08/17 04:05:35;;;;;;;3.00;2.00;;;;;24.10;100760.00;;;;2095461;28;20243;-62
2023/08/17 04:06:36;;;;;;;2.67;2.00;;;;;24.10;100757.00;;;;2102349;28;20215;-61
2023/08/17 04:07:36;;;;;;;3.77;2.07;;;;;24.10;100751.00;;;;2103667;28;20222;-60
2023/08/17 04:08:37;;;;;;;3.70;2.20;;;;;24.10;100756.00;;;;2093675;28;20222;-60
2023/08/17 04:09:37;;;;;;;3.53;1.90;;;;;24.10;100755.00;;;;2106273;28;20215;-60
2023/08/17 04:10:39;;;;;;;2.33;1.83;;;;;24.10;100763.00;;;;2107438;27;20231;-60
2023/08/17 04:11:39;;;;;;;4.38;2.00;;;;;24.10;100757.00;;;;2101001;28;20211;-59
2023/08/17 04:12:39;;;;;;;2.60;1.90;;;;;24.10;100757.00;;;;2102889;28;20213;-63
2023/08/17 04:13:39;;;;;;;2.67;2.07;;;;;24.10;100765.00;;;;2095967;28;20215;-61
2023/08/17 04:14:40;;;;;;;2.60;1.77;;;;;24.10;100754.00;;;;2105615;28;20226;-61
2023/08/17 04:15:40;;;;;;;3.27;2.40;;;;;24.10;100758.00;;;;2104212;28;20223;-60
2023/08/17 04:16:41;;;;;;;2.00;1.80;;;;;24.10;100761.00;;;;2101396;28;20216;-61
2023/08/17 04:17:41;;;;;;;2.73;1.80;;;;;24.10;100755.00;;;;2099955;28;20216;-59
2023/08/17 04:18:42;;;;;;;4.20;1.90;;;;;24.10;100754.00;;;;2094081;28;20214;-62
2023/08/17 04:19:43;;;;;;;3.70;1.95;;;;;24.00;100758.00;;;;2104696;28;20215;-60
2023/08/17 04:20:43;;;;;;;2.20;2.00;;;;;24.10;100754.00;;;;2107318;28;20202;-64
2023/08/17 04:21:43;;;;;;;3.10;2.27;;;;;24.10;100749.00;;;;2098895;28;20249;-61
2023/08/17 04:22:44;;;;;;;4.47;2.43;;;;;24.10;100754.00;;;;2101908;28;20211;-62
2023/08/17 04:23:44;;;;;;;2.97;2.13;;;;;24.00;100758.00;;;;2092297;28;20246;-62
2023/08/17 04:24:45;;;;;;;2.67;1.93;;;;;24.10;100756.00;;;;2093181;28;20323;-62
2023/08/17 04:25:46;;;;;;;3.87;2.13;;;;;24.00;100733.00;;;;2091991;28;20223;-62
2023/08/17 04:26:46;;;;;;;2.05;1.85;;;;;24.00;100752.00;;;;2098469;28;20235;-62
2023/08/17 04:27:47;;;;;;;2.80;2.10;;;;;24.00;100755.00;;;;2101837;28;20257;-61
2023/08/17 04:28:47;;;;;;;2.67;2.47;;;;;24.10;100756.00;;;;2091421;28;20208;-61
2023/08/17 04:29:47;;;;;;;2.10;1.90;;;;;24.10;100762.00;;;;2106202;28;20235;-60
2023/08/17 04:30:48;;;;;;;2.90;1.80;;;;;24.00;100754.00;;;;2100912;28;20208;-60
2023/08/17 04:31:48;;;;;;;2.90;2.00;;;;;23.70;100750.00;;;;2098082;28;20215;-61
2023/08/17 04:32:52;;;;;;;4.77;1.87;;;;;24.10;100755.00;;;;2093278;28;20212;-62
2023/08/17 04:33:52;;;;;;;3.20;2.13;;;;;24.00;100753.00;;;;2084577;28;20543;-60
2023/08/17 04:34:52;;;;;;;2.90;2.30;;;;;24.10;100762.00;;;;2092788;28;20247;-58
2023/08/17 04:35:53;;;;;;;4.50;2.03;;;;;24.10;100758.00;;;;2094996;28;20231;-59
2023/08/17 04:36:53;;;;;;;2.30;1.80;;;;;24.00;100752.00;;;;2098875;28;20223;-60
2023/08/17 04:37:53;;;;;;;1.90;1.80;;;;;24.00;100752.00;;;;2098496;28;20211;-59
2023/08/17 04:38:54;;;;;;;3.87;2.10;;;;;24.00;100759.00;;;;2097739;27;20215;-60
2023/08/17 04:39:54;;;;;;;3.80;2.20;;;;;24.00;100765.00;;;;2101843;28;20219;-59
2023/08/17 04:40:54;;;;;;;1.87;1.77;;;;;24.00;100757.00;;;;2087535;28;20797;-59
2023/08/17 04:41:55;;;;;;;2.30;1.80;;;;;24.00;100754.00;;;;2089760;28;20204;-59
2023/08/17 04:42:55;;;;;;;3.10;2.17;;;;;24.00;100759.00;;;;2092177;28;20230;-59
2023/08/17 04:43:55;;;;;;;2.53;2.33;;;;;24.00;100755.00;;;;2088051;28;20219;-59
2023/08/17 04:44:56;;;;;;;2.93;2.10;;;;;24.00;100753.00;;;;2099655;28;20212;-59
2023/08/17 04:45:56;;;;;;;2.47;1.90;;;;;24.00;100750.00;;;;2089627;28;20246;-59
2023/08/17 04:46:56;;;;;;;2.60;2.40;;;;;24.00;100756.00;;;;2093054;28;20257;-59
2023/08/17 04:47:57;;;;;;;3.90;2.00;;;;;24.00;100756.00;;;;2087347;28;20229;-59
2023/08/17 04:48:57;;;;;;;4.30;2.20;;;;;24.00;100754.00;;;;2084788;28;20310;-58
2023/08/17 04:49:57;;;;;;;3.40;2.20;;;;;24.00;100765.00;;;;2088500;28;20235;-60
2023/08/17 04:50:58;;;;;;;2.40;2.10;;;;;24.00;100763.00;;;;2086326;28;20221;-59
2023/08/17 04:51:58;;;;;;;2.80;2.00;;;;;24.00;100761.00;;;;2092949;28;20304;-59
2023/08/17 04:52:58;;;;;;;5.57;2.40;;;;;24.00;100760.00;;;;2093641;28;20220;-59
2023/08/17 04:53:59;;;;;;;2.63;2.20;;;;;24.00;100763.00;;;;2092857;28;20253;-59
2023/08/17 04:54:59;;;;;;;2.90;2.13;;;;;24.00;100758.00;;;;2099687;28;20258;-59
2023/08/17 04:55:59;;;;;;;3.90;2.27;;;;;24.00;100760.00;;;;2099957;28;20220;-59
2023/08/17 04:57:00;;;;;;;3.43;2.00;;;;;24.00;100758.00;;;;2098920;28;20213;-58
2023/08/17 04:58:00;;;;;;;4.73;2.03;;;;;24.00;100762.00;;;;2094152;28;20251;-59
2023/08/17 04:59:00;;;;;;;2.93;1.90;;;;;24.00;100765.00;;;;2082842;28;20222;-59
2023/08/17 05:00:01;;;;;;;2.87;2.00;;;;;24.00;100759.00;;;;2099657;28;20212;-59
2023/08/17 05:01:01;;;;;;;2.40;1.93;;;;;24.00;100755.00;;;;2101935;28;20314;-59
2023/08/17 05:02:01;;;;;;;3.73;2.43;;;;;24.00;100763.00;;;;2097534;28;20226;-60
2023/08/17 05:03:02;;;;;;;3.70;2.10;;;;;24.00;100669.00;;;;2097016;28;20224;-60